Lake Sumner, New Mexico
Current Conditions -  °F | °C
As of 4:56 AM on Thursday 23 Oct 2014 (Local Time) from K4MR Reporting Station
Haze Haze  
Wind Chill: 56°   Ceiling: 200
Heat Index: 56°   Visibility: 1.2mi
Dew Point: 55°   Wind: 14mph
Humidity: 96%   Direction: 220°SW
Pressure: 30.14"   Gusts: NA
Location:  34.3001°N, 104.256°W
Report Text: K4MR 231056Z AUTO 22012KT 1 1/4SM BR VV002 13/13 A3014 RMK AO2 VIS 3/4V1 1/4 SLP161 T01340128
Loading
Personal Weather Stations






























Interactive Weather Map
Tropical Storm Tracking
New forecast layout! Learn more

10-Day Weather Forecast

Advertisements
Track Severe Weather on mobile